createdAt,value
2019-02-14T00:01:07.080Z,21.6
2019-02-14T00:11:10.589Z,21.6
2019-02-14T00:21:14.100Z,21.6
2019-02-14T00:31:17.617Z,21.5
2019-02-14T00:41:21.136Z,21.5
2019-02-14T00:51:24.641Z,21.4
2019-02-14T01:01:28.150Z,21.4
2019-02-14T01:11:31.619Z,21.3
2019-02-14T01:21:35.137Z,21.3
2019-02-14T01:31:38.655Z,21.3
2019-02-14T01:41:42.165Z,21.3
2019-02-14T01:51:45.665Z,21.2
2019-02-14T02:01:49.177Z,21.2
2019-02-14T02:11:52.695Z,21.2
2019-02-14T02:21:56.214Z,21.2
2019-02-14T02:31:59.747Z,21.2
2019-02-14T02:42:03.320Z,21.2
2019-02-14T02:52:06.813Z,21.2
2019-02-14T03:02:10.341Z,21.1
2019-02-14T03:12:13.835Z,21.1
2019-02-14T03:22:17.344Z,21.1
2019-02-14T03:32:20.857Z,21.1
2019-02-14T03:42:24.367Z,21.1
2019-02-14T03:52:27.893Z,21.1
2019-02-14T04:02:31.417Z,21.1
2019-02-14T04:12:34.944Z,21
2019-02-14T04:22:38.446Z,21
2019-02-14T04:32:41.972Z,21
2019-02-14T04:42:45.544Z,21
2019-02-14T04:52:49.052Z,21
2019-02-14T05:02:52.580Z,21
2019-02-14T05:12:56.072Z,20.9
2019-02-14T05:22:59.607Z,20.9
2019-02-14T05:33:03.083Z,21
2019-02-14T05:43:06.575Z,20.9
2019-02-14T05:53:10.085Z,21
2019-02-14T06:03:13.603Z,21.1
2019-02-14T06:13:17.129Z,21.2
2019-02-14T06:23:20.596Z,21.2
2019-02-14T06:33:24.126Z,21.3
2019-02-14T06:43:27.606Z,21.3
2019-02-14T06:53:31.110Z,21.4
2019-02-14T07:03:34.607Z,21.4
2019-02-14T07:13:38.087Z,21.4
2019-02-14T07:23:41.596Z,21.5
2019-02-14T07:33:45.110Z,21.5
2019-02-14T07:43:48.646Z,21.5
2019-02-14T07:53:52.160Z,15.4
2019-02-14T08:03:55.687Z,20.9
2019-02-14T08:13:59.176Z,21.5
2019-02-14T08:24:02.669Z,21.8
2019-02-14T08:34:06.169Z,22
2019-02-14T08:44:09.685Z,22.3
2019-02-14T08:54:13.159Z,22.5
2019-02-14T09:04:16.671Z,22.6
2019-02-14T09:14:20.163Z,22.7
2019-02-14T09:24:23.680Z,22.9
2019-02-14T09:34:27.205Z,23
2019-02-14T09:44:30.727Z,23
2019-02-14T09:54:34.231Z,23.1
2019-02-14T10:04:37.699Z,23.2
2019-02-14T10:14:41.197Z,23.3
2019-02-14T10:24:44.700Z,23.4
2019-02-14T10:34:48.476Z,23.4
2019-02-14T10:44:52.004Z,23.4
2019-02-14T10:54:55.478Z,23.5
2019-02-14T11:04:58.967Z,23.6
2019-02-14T11:15:02.516Z,23.5
2019-02-14T11:25:06.006Z,23.5
2019-02-14T11:35:09.520Z,23.5
2019-02-14T11:45:13.047Z,23.5
2019-02-14T11:55:16.517Z,23.6
2019-02-14T12:05:20.011Z,23.6
2019-02-14T12:15:23.652Z,23.6
2019-02-14T12:25:27.188Z,23.6
2019-02-14T12:35:30.747Z,23.7
2019-02-14T12:45:34.257Z,23.7
2019-02-14T12:55:37.764Z,23.7
2019-02-14T13:05:41.257Z,23.8
2019-02-14T13:15:44.762Z,23.8
2019-02-14T13:25:48.273Z,23.9
2019-02-14T13:35:51.808Z,24
2019-02-14T13:45:55.337Z,23.9
2019-02-14T13:55:58.871Z,23.9
2019-02-14T14:06:02.402Z,23.9
2019-02-14T14:16:05.935Z,24
2019-02-14T14:26:09.409Z,24.8
2019-02-14T14:36:12.926Z,25.1
2019-02-14T14:46:16.426Z,24.2
2019-02-14T14:56:19.911Z,24.1
2019-02-14T15:06:23.418Z,24.1
2019-02-14T15:16:26.952Z,24.1
2019-02-14T15:26:30.536Z,24.1
2019-02-14T15:36:34.001Z,17.1
2019-02-14T15:46:37.509Z,21.3
2019-02-14T15:56:41.014Z,23.2
2019-02-14T16:06:44.522Z,23.4
2019-02-14T16:16:48.028Z,23.5
2019-02-14T16:26:51.550Z,23.6
2019-02-14T16:36:55.050Z,23.6
2019-02-14T16:46:58.577Z,23.6
2019-02-14T16:57:02.106Z,23.6
2019-02-14T17:07:05.610Z,23.6
2019-02-14T17:17:09.132Z,23.5
2019-02-14T17:27:12.638Z,23.6
2019-02-14T17:37:16.150Z,23.6
2019-02-14T17:47:19.651Z,23.5
2019-02-14T17:57:23.269Z,23.5
2019-02-14T18:07:27.775Z,23.4
2019-02-14T18:17:31.270Z,23.5
2019-02-14T18:27:34.790Z,23.4
2019-02-14T18:37:38.310Z,23.4
2019-02-14T18:47:41.816Z,23.4
2019-02-14T18:57:45.346Z,23.4
2019-02-14T19:07:48.832Z,23.4
2019-02-14T19:17:52.357Z,23.4
2019-02-14T19:27:55.878Z,23.4
2019-02-14T19:37:59.410Z,23.4
2019-02-14T19:48:02.895Z,23.3
2019-02-14T19:58:06.419Z,23.3
2019-02-14T20:08:09.915Z,23.3
2019-02-14T20:18:13.439Z,23.3
2019-02-14T20:28:16.939Z,23.3
2019-02-14T20:38:20.456Z,23.3
2019-02-14T20:48:23.956Z,23.3
2019-02-14T20:58:27.492Z,23.2
2019-02-14T21:08:31.010Z,23.1
2019-02-14T21:18:34.507Z,23.1
2019-02-14T21:28:38.038Z,23
2019-02-14T21:38:41.651Z,23
2019-02-14T21:48:45.172Z,23
2019-02-14T21:58:48.732Z,23
2019-02-14T22:08:52.347Z,22.9
2019-02-14T22:18:55.916Z,22.9
2019-02-14T22:28:59.428Z,22.8
2019-02-14T22:39:02.950Z,22.7
2019-02-14T22:49:06.453Z,22.6
2019-02-14T22:59:09.986Z,22.5
2019-02-14T23:09:13.480Z,22.4
2019-02-14T23:19:17.009Z,22.3
2019-02-14T23:29:20.519Z,22.3
2019-02-14T23:39:24.034Z,22.2
2019-02-14T23:49:27.557Z,22.2
2019-02-14T23:59:31.153Z,22.1
